Ames, Oklahoma
Current Conditions -  °F | °C
As of 12:58 AM on Wednesday 26 Nov 2014 (Local Time) from KEND Reporting Station
Clear Clear  
Wind Chill: 34°   Ceiling: Unl
Heat Index: 38°   Visibility: 10mi
Dew Point: 28°   Wind: 6mph
Humidity: 67%   Direction: 180°S
Pressure: 29.93"   Gusts: NA
Location:  36.25°N, 98.19°W
Report Text: KEND 260658Z AUTO 18005KT 10SM CLR 04/M02 A2993 RMK AO2 SLP141 T00361021 $
Loading
Personal Weather Stations






























Interactive Weather Map New forecast layout! Learn more

10-Day Weather Forecast

Advertisements
Track Severe Weather on mobile